sensor_id;sensor_type;location;lat;lon;timestamp;temperature;humidity
42261;DHT22;27926;48.062;7.474;2023-08-21T00:01:05;22.70;99.90
42261;DHT22;27926;48.062;7.474;2023-08-21T00:03:30;22.60;99.90
42261;DHT22;27926;48.062;7.474;2023-08-21T00:05:55;22.60;99.90
42261;DHT22;27926;48.062;7.474;2023-08-21T00:08:19;22.60;99.90
42261;DHT22;27926;48.062;7.474;2023-08-21T00:10:44;22.60;99.90
42261;DHT22;27926;48.062;7.474;2023-08-21T00:13:08;22.50;99.90
42261;DHT22;27926;48.062;7.474;2023-08-21T00:15:33;22.50;99.90
42261;DHT22;27926;48.062;7.474;2023-08-21T00:17:58;22.50;99.90
42261;DHT22;27926;48.062;7.474;2023-08-21T00:20:22;22.50;99.90
42261;DHT22;27926;48.062;7.474;2023-08-21T00:22:47;22.50;99.90
42261;DHT22;27926;48.062;7.474;2023-08-21T00:25:12;22.50;99.90
42261;DHT22;27926;48.062;7.474;2023-08-21T00:27:36;22.50;99.90
42261;DHT22;27926;48.062;7.474;2023-08-21T00:30:02;22.40;99.90
42261;DHT22;27926;48.062;7.474;2023-08-21T00:32:26;22.40;99.90
42261;DHT22;27926;48.062;7.474;2023-08-21T00:34:51;22.40;99.90
42261;DHT22;27926;48.062;7.474;2023-08-21T00:37:15;22.40;99.90
42261;DHT22;27926;48.062;7.474;2023-08-21T00:39:40;22.40;99.90
42261;DHT22;27926;48.062;7.474;2023-08-21T00:42:05;22.40;99.90
42261;DHT22;27926;48.062;7.474;2023-08-21T00:44:31;22.30;99.90
42261;DHT22;27926;48.062;7.474;2023-08-21T00:46:56;22.40;99.90
42261;DHT22;27926;48.062;7.474;2023-08-21T00:49:20;22.30;99.90
42261;DHT22;27926;48.062;7.474;2023-08-21T00:51:46;22.30;99.90
42261;DHT22;27926;48.062;7.474;2023-08-21T00:54:10;22.30;99.90
42261;DHT22;27926;48.062;7.474;2023-08-21T00:56:35;22.20;99.90
42261;DHT22;27926;48.062;7.474;2023-08-21T00:59:00;22.20;99.90
42261;DHT22;27926;48.062;7.474;2023-08-21T01:01:24;22.10;99.90
42261;DHT22;27926;48.062;7.474;2023-08-21T01:03:50;22.10;99.90
42261;DHT22;27926;48.062;7.474;2023-08-21T01:06:14;22.10;99.90
42261;DHT22;27926;48.062;7.474;2023-08-21T01:08:58;22.40;99.90
42261;DHT22;27926;48.062;7.474;2023-08-21T01:11:26;22.10;99.90
42261;DHT22;27926;48.062;7.474;2023-08-21T01:14:12;22.10;99.90
42261;DHT22;27926;48.062;7.474;2023-08-21T01:16:39;22.10;99.90
42261;DHT22;27926;48.062;7.474;2023-08-21T01:19:09;22.10;99.90
42261;DHT22;27926;48.062;7.474;2023-08-21T01:21:37;22.10;99.90
42261;DHT22;27926;48.062;7.474;2023-08-21T01:24:02;22.10;99.90
42261;DHT22;27926;48.062;7.474;2023-08-21T01:26:26;22.00;99.90
42261;DHT22;27926;48.062;7.474;2023-08-21T01:28:51;22.00;99.90
42261;DHT22;27926;48.062;7.474;2023-08-21T01:31:22;22.00;99.90
42261;DHT22;27926;48.062;7.474;2023-08-21T01:33:52;21.90;99.90
42261;DHT22;27926;48.062;7.474;2023-08-21T01:36:18;21.90;99.90
42261;DHT22;27926;48.062;7.474;2023-08-21T01:38:43;21.90;99.90
42261;DHT22;27926;48.062;7.474;2023-08-21T01:41:08;21.90;99.90
42261;DHT22;27926;48.062;7.474;2023-08-21T01:43:33;21.80;99.90
42261;DHT22;27926;48.062;7.474;2023-08-21T01:45:57;21.80;99.90
42261;DHT22;27926;48.062;7.474;2023-08-21T01:48:22;21.80;99.90
42261;DHT22;27926;48.062;7.474;2023-08-21T01:50:47;21.80;99.90
42261;DHT22;27926;48.062;7.474;2023-08-21T01:53:11;21.80;99.90
42261;DHT22;27926;48.062;7.474;2023-08-21T01:55:36;21.80;99.90
42261;DHT22;27926;48.062;7.474;2023-08-21T01:58:00;21.80;99.90
42261;DHT22;27926;48.062;7.474;2023-08-21T02:00:25;21.80;99.90
42261;DHT22;27926;48.062;7.474;2023-08-21T02:02:49;21.80;99.90
42261;DHT22;27926;48.062;7.474;2023-08-21T02:05:14;21.70;99.90
42261;DHT22;27926;48.062;7.474;2023-08-21T02:07:39;21.70;99.90
42261;DHT22;27926;48.062;7.474;2023-08-21T02:10:03;21.60;99.90
42261;DHT22;27926;48.062;7.474;2023-08-21T02:12:28;21.60;99.90
42261;DHT22;27926;48.062;7.474;2023-08-21T02:14:53;21.60;99.90
42261;DHT22;27926;48.062;7.474;2023-08-21T02:17:17;21.60;99.90
42261;DHT22;27926;48.062;7.474;2023-08-21T02:19:42;21.60;99.90
42261;DHT22;27926;48.062;7.474;2023-08-21T02:22:06;21.60;99.90
42261;DHT22;27926;48.062;7.474;2023-08-21T02:24:31;21.60;99.90
42261;DHT22;27926;48.062;7.474;2023-08-21T02:26:56;21.60;99.90
42261;DHT22;27926;48.062;7.474;2023-08-21T02:29:20;21.60;99.90
42261;DHT22;27926;48.062;7.474;2023-08-21T02:31:45;21.50;99.90
42261;DHT22;27926;48.062;7.474;2023-08-21T02:34:09;21.50;99.90
42261;DHT22;27926;48.062;7.474;2023-08-21T02:36:34;21.50;99.90
42261;DHT22;27926;48.062;7.474;2023-08-21T02:38:59;21.50;99.90
42261;DHT22;27926;48.062;7.474;2023-08-21T02:41:23;21.50;99.90
42261;DHT22;27926;48.062;7.474;2023-08-21T02:43:48;21.50;99.90
42261;DHT22;27926;48.062;7.474;2023-08-21T02:46:12;21.50;99.90
42261;DHT22;27926;48.062;7.474;2023-08-21T02:48:37;21.40;99.90
42261;DHT22;27926;48.062;7.474;2023-08-21T02:51:01;21.40;99.90
42261;DHT22;27926;48.062;7.474;2023-08-21T02:53:27;21.40;99.90
42261;DHT22;27926;48.062;7.474;2023-08-21T02:55:51;21.40;99.90
42261;DHT22;27926;48.062;7.474;2023-08-21T02:58:16;21.40;99.90
42261;DHT22;27926;48.062;7.474;2023-08-21T03:00:40;21.30;99.90
42261;DHT22;27926;48.062;7.474;2023-08-21T03:03:05;21.30;99.90
42261;DHT22;27926;48.062;7.474;2023-08-21T03:05:30;21.30;99.90
42261;DHT22;27926;48.062;7.474;2023-08-21T03:07:54;21.30;99.90
42261;DHT22;27926;48.062;7.474;2023-08-21T03:10:19;21.30;99.90
42261;DHT22;27926;48.062;7.474;2023-08-21T03:12:43;21.30;99.90
42261;DHT22;27926;48.062;7.474;2023-08-21T03:15:08;21.20;99.90
42261;DHT22;27926;48.062;7.474;2023-08-21T03:17:33;21.30;99.90
42261;DHT22;27926;48.062;7.474;2023-08-21T03:19:57;21.20;99.90
42261;DHT22;27926;48.062;7.474;2023-08-21T03:22:22;21.20;99.90
42261;DHT22;27926;48.062;7.474;2023-08-21T03:24:47;21.20;99.90
42261;DHT22;27926;48.062;7.474;2023-08-21T03:27:11;21.10;99.90
42261;DHT22;27926;48.062;7.474;2023-08-21T03:29:36;21.10;99.90
42261;DHT22;27926;48.062;7.474;2023-08-21T03:32:00;21.10;99.90
42261;DHT22;27926;48.062;7.474;2023-08-21T03:34:25;21.00;99.90
42261;DHT22;27926;48.062;7.474;2023-08-21T03:36:49;21.00;99.90
42261;DHT22;27926;48.062;7.474;2023-08-21T03:39:14;20.90;99.90
42261;DHT22;27926;48.062;7.474;2023-08-21T03:41:39;20.90;99.90
42261;DHT22;27926;48.062;7.474;2023-08-21T03:44:03;20.90;99.90
42261;DHT22;27926;48.062;7.474;2023-08-21T03:46:28;20.90;99.90
42261;DHT22;27926;48.062;7.474;2023-08-21T03:48:53;20.90;99.90
42261;DHT22;27926;48.062;7.474;2023-08-21T03:51:17;20.90;99.90
42261;DHT22;27926;48.062;7.474;2023-08-21T03:53:42;20.90;99.90
42261;DHT22;27926;48.062;7.474;2023-08-21T03:56:06;20.80;99.90
42261;DHT22;27926;48.062;7.474;2023-08-21T03:58:32;20.80;99.90
42261;DHT22;27926;48.062;7.474;2023-08-21T04:00:56;20.80;99.90
42261;DHT22;27926;48.062;7.474;2023-08-21T04:03:21;20.80;99.90
42261;DHT22;27926;48.062;7.474;2023-08-21T04:05:46;21.00;99.90
42261;DHT22;27926;48.062;7.474;2023-08-21T04:08:11;20.80;99.90
42261;DHT22;27926;48.062;7.474;2023-08-21T04:10:35;20.80;99.90
42261;DHT22;27926;48.062;7.474;2023-08-21T04:13:00;20.80;99.90
42261;DHT22;27926;48.062;7.474;2023-08-21T04:15:25;20.80;99.90
42261;DHT22;27926;48.062;7.474;2023-08-21T04:17:50;20.80;99.90
42261;DHT22;27926;48.062;7.474;2023-08-21T04:20:14;20.70;99.90
42261;DHT22;27926;48.062;7.474;2023-08-21T04:22:39;20.70;99.90
42261;DHT22;27926;48.062;7.474;2023-08-21T04:25:04;20.70;99.90
42261;DHT22;27926;48.062;7.474;2023-08-21T04:27:29;20.60;99.90
42261;DHT22;27926;48.062;7.474;2023-08-21T04:29:53;20.60;99.90
42261;DHT22;27926;48.062;7.474;2023-08-21T04:32:18;20.60;99.90
42261;DHT22;27926;48.062;7.474;2023-08-21T04:34:42;20.60;99.90
42261;DHT22;27926;48.062;7.474;2023-08-21T04:37:07;20.70;99.90
42261;DHT22;27926;48.062;7.474;2023-08-21T04:39:31;20.70;99.90
42261;DHT22;27926;48.062;7.474;2023-08-21T04:41:56;20.70;99.90
42261;DHT22;27926;48.062;7.474;2023-08-21T04:44:21;20.70;99.90
42261;DHT22;27926;48.062;7.474;2023-08-21T04:46:48;20.70;99.90
42261;DHT22;27926;48.062;7.474;2023-08-21T04:49:13;20.70;99.90
42261;DHT22;27926;48.062;7.474;2023-08-21T04:51:38;20.70;99.90
42261;DHT22;27926;48.062;7.474;2023-08-21T04:54:02;20.60;99.90
42261;DHT22;27926;48.062;7.474;2023-08-21T04:56:27;20.60;99.90
42261;DHT22;27926;48.062;7.474;2023-08-21T04:58:52;20.60;99.90
42261;DHT22;27926;48.062;7.474;2023-08-21T05:01:17;20.70;99.90
42261;DHT22;27926;48.062;7.474;2023-08-21T05:03:41;20.70;99.90
42261;DHT22;27926;48.062;7.474;2023-08-21T05:06:06;20.80;99.90
42261;DHT22;27926;48.062;7.474;2023-08-21T05:08:31;20.80;99.90
42261;DHT22;27926;48.062;7.474;2023-08-21T05:10:56;20.90;99.90
42261;DHT22;27926;48.062;7.474;2023-08-21T05:13:21;21.00;99.90
42261;DHT22;27926;48.062;7.474;2023-08-21T05:15:51;21.00;99.90
42261;DHT22;27926;48.062;7.474;2023-08-21T05:18:16;21.10;99.90
42261;DHT22;27926;48.062;7.474;2023-08-21T05:20:41;21.10;99.90
42261;DHT22;27926;48.062;7.474;2023-08-21T05:23:05;21.20;99.90
42261;DHT22;27926;48.062;7.474;2023-08-21T05:25:32;21.30;99.90
42261;DHT22;27926;48.062;7.474;2023-08-21T05:27:59;21.40;99.90
42261;DHT22;27926;48.062;7.474;2023-08-21T05:30:24;21.50;99.90
42261;DHT22;27926;48.062;7.474;2023-08-21T05:32:49;21.60;99.90
42261;DHT22;27926;48.062;7.474;2023-08-21T05:35:13;21.70;99.90
42261;DHT22;27926;48.062;7.474;2023-08-21T05:37:38;21.80;99.90
42261;DHT22;27926;48.062;7.474;2023-08-21T05:40:03;22.00;99.90
42261;DHT22;27926;48.062;7.474;2023-08-21T05:42:28;22.00;99.90
42261;DHT22;27926;48.062;7.474;2023-08-21T05:44:52;22.20;99.90
42261;DHT22;27926;48.062;7.474;2023-08-21T05:47:18;22.30;99.90
42261;DHT22;27926;48.062;7.474;2023-08-21T05:49:42;22.50;99.90
42261;DHT22;27926;48.062;7.474;2023-08-21T05:52:09;22.70;99.90
42261;DHT22;27926;48.062;7.474;2023-08-21T05:54:33;23.20;99.90
42261;DHT22;27926;48.062;7.474;2023-08-21T05:56:58;24.00;99.90
42261;DHT22;27926;48.062;7.474;2023-08-21T05:59:32;24.80;99.90
42261;DHT22;27926;48.062;7.474;2023-08-21T06:01:57;25.80;99.90
42261;DHT22;27926;48.062;7.474;2023-08-21T06:04:22;26.70;99.90
42261;DHT22;27926;48.062;7.474;2023-08-21T06:06:47;27.50;99.90
42261;DHT22;27926;48.062;7.474;2023-08-21T06:09:11;28.10;99.90
42261;DHT22;27926;48.062;7.474;2023-08-21T06:11:36;28.50;99.90
42261;DHT22;27926;48.062;7.474;2023-08-21T06:14:00;28.80;99.90
42261;DHT22;27926;48.062;7.474;2023-08-21T06:16:25;29.10;99.90
42261;DHT22;27926;48.062;7.474;2023-08-21T06:18:50;29.60;99.90
42261;DHT22;27926;48.062;7.474;2023-08-21T06:21:14;30.10;99.90
42261;DHT22;27926;48.062;7.474;2023-08-21T06:23:39;30.40;99.90
42261;DHT22;27926;48.062;7.474;2023-08-21T06:26:03;30.60;99.90
42261;DHT22;27926;48.062;7.474;2023-08-21T06:28:29;30.70;99.90
42261;DHT22;27926;48.062;7.474;2023-08-21T06:30:56;30.80;99.90
42261;DHT22;27926;48.062;7.474;2023-08-21T06:33:22;31.10;99.90
42261;DHT22;27926;48.062;7.474;2023-08-21T06:35:46;31.30;99.90
42261;DHT22;27926;48.062;7.474;2023-08-21T06:38:12;31.30;99.90
42261;DHT22;27926;48.062;7.474;2023-08-21T06:40:36;31.30;99.90
42261;DHT22;27926;48.062;7.474;2023-08-21T06:43:01;31.20;99.90
42261;DHT22;27926;48.062;7.474;2023-08-21T06:45:26;31.20;99.90
42261;DHT22;27926;48.062;7.474;2023-08-21T06:47:54;30.70;99.90
42261;DHT22;27926;48.062;7.474;2023-08-21T06:50:19;30.40;99.90
42261;DHT22;27926;48.062;7.474;2023-08-21T06:52:43;30.00;99.90
42261;DHT22;27926;48.062;7.474;2023-08-21T06:55:08;29.60;99.90
42261;DHT22;27926;48.062;7.474;2023-08-21T06:57:33;29.30;99.90
42261;DHT22;27926;48.062;7.474;2023-08-21T06:59:57;29.00;99.90
42261;DHT22;27926;48.062;7.474;2023-08-21T07:02:22;28.90;99.90
42261;DHT22;27926;48.062;7.474;2023-08-21T07:04:46;28.70;99.90
42261;DHT22;27926;48.062;7.474;2023-08-21T07:07:11;28.80;99.90
42261;DHT22;27926;48.062;7.474;2023-08-21T07:09:36;28.80;99.90
42261;DHT22;27926;48.062;7.474;2023-08-21T07:12:00;28.80;99.90
42261;DHT22;27926;48.062;7.474;2023-08-21T07:14:26;28.70;99.90
42261;DHT22;27926;48.062;7.474;2023-08-21T07:16:50;28.60;99.90
42261;DHT22;27926;48.062;7.474;2023-08-21T07:19:16;28.70;99.90
42261;DHT22;27926;48.062;7.474;2023-08-21T07:21:41;28.50;99.90
42261;DHT22;27926;48.062;7.474;2023-08-21T07:24:06;28.50;99.90
42261;DHT22;27926;48.062;7.474;2023-08-21T07:26:31;28.60;99.90
42261;DHT22;27926;48.062;7.474;2023-08-21T07:28:56;28.60;99.90
42261;DHT22;27926;48.062;7.474;2023-08-21T07:31:22;28.60;99.90
42261;DHT22;27926;48.062;7.474;2023-08-21T07:33:47;28.50;99.90
42261;DHT22;27926;48.062;7.474;2023-08-21T07:36:11;28.30;99.90
42261;DHT22;27926;48.062;7.474;2023-08-21T07:38:41;28.10;99.90
42261;DHT22;27926;48.062;7.474;2023-08-21T07:41:10;28.10;99.90
42261;DHT22;27926;48.062;7.474;2023-08-21T07:43:36;28.20;99.90
42261;DHT22;27926;48.062;7.474;2023-08-21T07:46:04;28.30;99.90
42261;DHT22;27926;48.062;7.474;2023-08-21T07:48:30;28.70;99.90
42261;DHT22;27926;48.062;7.474;2023-08-21T07:50:54;29.30;99.90
42261;DHT22;27926;48.062;7.474;2023-08-21T07:53:19;29.30;99.90
42261;DHT22;27926;48.062;7.474;2023-08-21T07:55:44;29.10;99.90
42261;DHT22;27926;48.062;7.474;2023-08-21T07:58:10;28.90;99.90
42261;DHT22;27926;48.062;7.474;2023-08-21T08:00:35;28.80;99.90
42261;DHT22;27926;48.062;7.474;2023-08-21T08:02:59;28.80;99.90
42261;DHT22;27926;48.062;7.474;2023-08-21T08:05:24;28.90;99.90
42261;DHT22;27926;48.062;7.474;2023-08-21T08:07:49;28.70;99.90
42261;DHT22;27926;48.062;7.474;2023-08-21T08:10:13;28.70;99.90
42261;DHT22;27926;48.062;7.474;2023-08-21T08:12:41;28.70;99.90
42261;DHT22;27926;48.062;7.474;2023-08-21T08:15:08;28.80;99.90
42261;DHT22;27926;48.062;7.474;2023-08-21T08:17:33;28.80;99.90
42261;DHT22;27926;48.062;7.474;2023-08-21T08:19:57;28.80;99.90
42261;DHT22;27926;48.062;7.474;2023-08-21T08:22:22;28.80;99.90
42261;DHT22;27926;48.062;7.474;2023-08-21T08:24:47;28.90;99.90
42261;DHT22;27926;48.062;7.474;2023-08-21T08:27:11;29.00;99.90
42261;DHT22;27926;48.062;7.474;2023-08-21T08:29:36;29.10;99.90
42261;DHT22;27926;48.062;7.474;2023-08-21T08:32:00;28.90;99.90
42261;DHT22;27926;48.062;7.474;2023-08-21T08:34:25;28.80;99.90
42261;DHT22;27926;48.062;7.474;2023-08-21T08:36:50;28.90;99.90
42261;DHT22;27926;48.062;7.474;2023-08-21T08:39:14;28.80;99.90
42261;DHT22;27926;48.062;7.474;2023-08-21T08:41:54;29.00;99.90
42261;DHT22;27926;48.062;7.474;2023-08-21T08:44:20;28.90;99.90
42261;DHT22;27926;48.062;7.474;2023-08-21T08:46:48;29.10;99.90
42261;DHT22;27926;48.062;7.474;2023-08-21T08:49:14;29.20;99.90
42261;DHT22;27926;48.062;7.474;2023-08-21T08:51:39;29.20;99.90
42261;DHT22;27926;48.062;7.474;2023-08-21T08:54:06;29.30;99.90
42261;DHT22;27926;48.062;7.474;2023-08-21T08:56:32;29.30;99.90
42261;DHT22;27926;48.062;7.474;2023-08-21T08:58:56;29.30;99.90
42261;DHT22;27926;48.062;7.474;2023-08-21T09:01:21;29.30;99.90
42261;DHT22;27926;48.062;7.474;2023-08-21T09:03:45;29.20;99.90
42261;DHT22;27926;48.062;7.474;2023-08-21T09:06:10;29.30;99.90
42261;DHT22;27926;48.062;7.474;2023-08-21T09:08:35;29.40;99.90
42261;DHT22;27926;48.062;7.474;2023-08-21T09:11:02;29.50;99.90
42261;DHT22;27926;48.062;7.474;2023-08-21T09:13:31;29.50;99.90
42261;DHT22;27926;48.062;7.474;2023-08-21T09:15:56;29.40;99.90
42261;DHT22;27926;48.062;7.474;2023-08-21T09:18:20;29.80;99.90
42261;DHT22;27926;48.062;7.474;2023-08-21T09:20:45;29.50;99.90
42261;DHT22;27926;48.062;7.474;2023-08-21T09:23:14;29.40;99.90
42261;DHT22;27926;48.062;7.474;2023-08-21T09:25:39;29.50;99.90
42261;DHT22;27926;48.062;7.474;2023-08-21T09:28:05;29.60;99.90
42261;DHT22;27926;48.062;7.474;2023-08-21T09:30:43;29.70;99.90
42261;DHT22;27926;48.062;7.474;2023-08-21T09:33:08;29.80;99.90
42261;DHT22;27926;48.062;7.474;2023-08-21T09:35:34;29.80;99.90
42261;DHT22;27926;48.062;7.474;2023-08-21T09:37:59;29.70;99.90
42261;DHT22;27926;48.062;7.474;2023-08-21T09:40:23;29.70;99.90
42261;DHT22;27926;48.062;7.474;2023-08-21T09:42:57;29.60;99.90
42261;DHT22;27926;48.062;7.474;2023-08-21T09:45:24;29.60;99.90
42261;DHT22;27926;48.062;7.474;2023-08-21T09:47:50;29.70;99.90
42261;DHT22;27926;48.062;7.474;2023-08-21T09:50:16;29.90;99.90
42261;DHT22;27926;48.062;7.474;2023-08-21T09:52:43;29.80;99.90
42261;DHT22;27926;48.062;7.474;2023-08-21T09:55:09;29.90;99.90
42261;DHT22;27926;48.062;7.474;2023-08-21T09:57:35;30.10;99.90
42261;DHT22;27926;48.062;7.474;2023-08-21T10:00:01;30.20;99.90
42261;DHT22;27926;48.062;7.474;2023-08-21T10:02:37;30.20;99.90
42261;DHT22;27926;48.062;7.474;2023-08-21T10:05:02;30.20;99.90
42261;DHT22;27926;48.062;7.474;2023-08-21T10:07:28;30.20;99.90
42261;DHT22;27926;48.062;7.474;2023-08-21T10:09:53;30.30;99.90
42261;DHT22;27926;48.062;7.474;2023-08-21T10:12:19;30.40;99.90
42261;DHT22;27926;48.062;7.474;2023-08-21T10:14:45;30.70;99.90
42261;DHT22;27926;48.062;7.474;2023-08-21T10:17:10;30.80;99.90
42261;DHT22;27926;48.062;7.474;2023-08-21T10:19:35;30.70;99.90
42261;DHT22;27926;48.062;7.474;2023-08-21T10:21:59;30.70;99.90
42261;DHT22;27926;48.062;7.474;2023-08-21T10:24:37;30.60;99.90
42261;DHT22;27926;48.062;7.474;2023-08-21T10:27:02;30.60;99.90
42261;DHT22;27926;48.062;7.474;2023-08-21T10:29:27;30.70;99.90
42261;DHT22;27926;48.062;7.474;2023-08-21T10:32:02;30.80;99.90
42261;DHT22;27926;48.062;7.474;2023-08-21T10:34:37;30.90;99.90
42261;DHT22;27926;48.062;7.474;2023-08-21T10:37:04;31.00;99.90
42261;DHT22;27926;48.062;7.474;2023-08-21T10:39:34;31.00;99.90
42261;DHT22;27926;48.062;7.474;2023-08-21T10:42:08;31.00;99.90
42261;DHT22;27926;48.062;7.474;2023-08-21T10:49:56;31.40;99.90
42261;DHT22;27926;48.062;7.474;2023-08-21T10:52:31;31.50;99.90
42261;DHT22;27926;48.062;7.474;2023-08-21T10:55:00;31.50;99.90
42261;DHT22;27926;48.062;7.474;2023-08-21T10:57:27;31.40;99.90
42261;DHT22;27926;48.062;7.474;2023-08-21T11:00:03;31.30;99.90
42261;DHT22;27926;48.062;7.474;2023-08-21T11:02:29;31.30;99.90
42261;DHT22;27926;48.062;7.474;2023-08-21T11:04:54;31.30;99.90
42261;DHT22;27926;48.062;7.474;2023-08-21T11:07:19;31.40;99.90
42261;DHT22;27926;48.062;7.474;2023-08-21T11:09:44;31.60;99.90
42261;DHT22;27926;48.062;7.474;2023-08-21T11:12:13;31.80;99.90
42261;DHT22;27926;48.062;7.474;2023-08-21T11:14:39;31.70;99.90
42261;DHT22;27926;48.062;7.474;2023-08-21T11:17:04;31.70;99.90
42261;DHT22;27926;48.062;7.474;2023-08-21T11:19:33;31.70;99.90
42261;DHT22;27926;48.062;7.474;2023-08-21T11:21:58;31.70;99.90
42261;DHT22;27926;48.062;7.474;2023-08-21T11:27:11;31.90;99.90
42261;DHT22;27926;48.062;7.474;2023-08-21T11:29:37;32.00;99.80
42261;DHT22;27926;48.062;7.474;2023-08-21T11:32:03;32.00;99.90
42261;DHT22;27926;48.062;7.474;2023-08-21T11:34:28;32.20;99.90
42261;DHT22;27926;48.062;7.474;2023-08-21T11:36:53;32.10;99.80
42261;DHT22;27926;48.062;7.474;2023-08-21T11:39:17;32.10;99.80
42261;DHT22;27926;48.062;7.474;2023-08-21T11:41:58;32.20;99.80
42261;DHT22;27926;48.062;7.474;2023-08-21T11:44:23;32.20;99.80
42261;DHT22;27926;48.062;7.474;2023-08-21T11:46:50;32.10;99.90
42261;DHT22;27926;48.062;7.474;2023-08-21T11:49:15;32.10;99.30
42261;DHT22;27926;48.062;7.474;2023-08-21T11:51:39;32.10;99.80
42261;DHT22;27926;48.062;7.474;2023-08-21T11:54:04;32.10;99.60
42261;DHT22;27926;48.062;7.474;2023-08-21T11:56:30;32.20;99.80
42261;DHT22;27926;48.062;7.474;2023-08-21T11:58:54;32.40;99.80
42261;DHT22;27926;48.062;7.474;2023-08-21T12:01:20;32.60;98.90
42261;DHT22;27926;48.062;7.474;2023-08-21T12:03:44;32.60;98.60
42261;DHT22;27926;48.062;7.474;2023-08-21T12:06:11;32.50;98.40
42261;DHT22;27926;48.062;7.474;2023-08-21T12:08:36;32.40;98.10
42261;DHT22;27926;48.062;7.474;2023-08-21T12:11:01;32.40;98.90
42261;DHT22;27926;48.062;7.474;2023-08-21T12:13:26;32.30;98.60
42261;DHT22;27926;48.062;7.474;2023-08-21T12:15:51;32.30;98.70
42261;DHT22;27926;48.062;7.474;2023-08-21T12:18:15;32.30;99.20
42261;DHT22;27926;48.062;7.474;2023-08-21T12:20:40;32.40;98.50
42261;DHT22;27926;48.062;7.474;2023-08-21T12:23:05;32.40;98.60
42261;DHT22;27926;48.062;7.474;2023-08-21T12:25:29;32.50;98.60
42261;DHT22;27926;48.062;7.474;2023-08-21T12:27:56;32.70;99.00
42261;DHT22;27926;48.062;7.474;2023-08-21T12:30:20;32.80;98.70
42261;DHT22;27926;48.062;7.474;2023-08-21T12:32:46;32.80;98.60
42261;DHT22;27926;48.062;7.474;2023-08-21T12:35:11;32.80;98.20
42261;DHT22;27926;48.062;7.474;2023-08-21T12:37:36;32.60;98.50
42261;DHT22;27926;48.062;7.474;2023-08-21T12:40:01;32.60;98.00
42261;DHT22;27926;48.062;7.474;2023-08-21T12:42:26;32.60;98.00
42261;DHT22;27926;48.062;7.474;2023-08-21T12:44:50;32.70;98.60
42261;DHT22;27926;48.062;7.474;2023-08-21T12:47:15;32.80;98.30
42261;DHT22;27926;48.062;7.474;2023-08-21T12:49:40;32.80;98.00
42261;DHT22;27926;48.062;7.474;2023-08-21T12:52:05;32.80;98.00
42261;DHT22;27926;48.062;7.474;2023-08-21T12:54:31;32.80;98.00
42261;DHT22;27926;48.062;7.474;2023-08-21T12:56:55;32.90;98.10
42261;DHT22;27926;48.062;7.474;2023-08-21T12:59:21;32.90;98.00
42261;DHT22;27926;48.062;7.474;2023-08-21T13:01:45;32.80;98.00
42261;DHT22;27926;48.062;7.474;2023-08-21T13:04:10;32.50;97.80
42261;DHT22;27926;48.062;7.474;2023-08-21T13:06:34;32.80;98.00
42261;DHT22;27926;48.062;7.474;2023-08-21T13:08:59;32.80;97.80
42261;DHT22;27926;48.062;7.474;2023-08-21T13:11:24;32.90;97.40
42261;DHT22;27926;48.062;7.474;2023-08-21T13:13:48;33.00;97.20
42261;DHT22;27926;48.062;7.474;2023-08-21T13:16:13;33.10;97.60
42261;DHT22;27926;48.062;7.474;2023-08-21T13:18:38;33.10;96.90
42261;DHT22;27926;48.062;7.474;2023-08-21T13:21:02;33.10;97.20
42261;DHT22;27926;48.062;7.474;2023-08-21T13:23:28;33.20;97.40
42261;DHT22;27926;48.062;7.474;2023-08-21T13:25:53;33.20;97.20
42261;DHT22;27926;48.062;7.474;2023-08-21T13:28:18;33.30;97.20
42261;DHT22;27926;48.062;7.474;2023-08-21T13:30:43;33.30;97.10
42261;DHT22;27926;48.062;7.474;2023-08-21T13:33:07;33.30;97.30
42261;DHT22;27926;48.062;7.474;2023-08-21T13:35:32;33.50;97.50
42261;DHT22;27926;48.062;7.474;2023-08-21T13:37:57;33.60;96.70
42261;DHT22;27926;48.062;7.474;2023-08-21T13:40:21;33.60;96.60
42261;DHT22;27926;48.062;7.474;2023-08-21T13:42:47;33.50;96.80
42261;DHT22;27926;48.062;7.474;2023-08-21T13:45:14;33.40;95.70
42261;DHT22;27926;48.062;7.474;2023-08-21T13:47:40;33.40;95.90
42261;DHT22;27926;48.062;7.474;2023-08-21T13:50:06;33.50;96.10
42261;DHT22;27926;48.062;7.474;2023-08-21T13:52:30;33.50;95.50
42261;DHT22;27926;48.062;7.474;2023-08-21T13:54:55;33.30;96.00
42261;DHT22;27926;48.062;7.474;2023-08-21T13:57:19;33.40;95.70
42261;DHT22;27926;48.062;7.474;2023-08-21T13:59:44;33.40;95.10
42261;DHT22;27926;48.062;7.474;2023-08-21T14:02:09;33.50;95.10
42261;DHT22;27926;48.062;7.474;2023-08-21T14:04:33;33.50;94.90
42261;DHT22;27926;48.062;7.474;2023-08-21T14:06:58;33.60;95.70
42261;DHT22;27926;48.062;7.474;2023-08-21T14:09:22;33.70;95.20
42261;DHT22;27926;48.062;7.474;2023-08-21T14:11:47;33.70;95.60
42261;DHT22;27926;48.062;7.474;2023-08-21T14:14:12;33.80;95.50
42261;DHT22;27926;48.062;7.474;2023-08-21T14:16:36;33.80;94.40
42261;DHT22;27926;48.062;7.474;2023-08-21T14:19:01;33.80;94.80
42261;DHT22;27926;48.062;7.474;2023-08-21T14:21:25;33.80;95.10
42261;DHT22;27926;48.062;7.474;2023-08-21T14:23:50;33.70;95.20
42261;DHT22;27926;48.062;7.474;2023-08-21T14:26:15;33.70;94.90
42261;DHT22;27926;48.062;7.474;2023-08-21T14:28:39;33.70;94.90
42261;DHT22;27926;48.062;7.474;2023-08-21T14:31:04;33.70;95.00
42261;DHT22;27926;48.062;7.474;2023-08-21T14:33:28;33.60;94.90
42261;DHT22;27926;48.062;7.474;2023-08-21T14:35:53;33.50;95.20
42261;DHT22;27926;48.062;7.474;2023-08-21T14:38:18;33.60;95.20
42261;DHT22;27926;48.062;7.474;2023-08-21T14:40:42;33.50;95.20
42261;DHT22;27926;48.062;7.474;2023-08-21T14:43:07;33.50;95.20
42261;DHT22;27926;48.062;7.474;2023-08-21T14:45:32;33.50;95.00
42261;DHT22;27926;48.062;7.474;2023-08-21T14:47:56;33.50;95.10
42261;DHT22;27926;48.062;7.474;2023-08-21T14:50:21;33.60;94.80
42261;DHT22;27926;48.062;7.474;2023-08-21T14:52:45;33.70;95.10
42261;DHT22;27926;48.062;7.474;2023-08-21T14:55:12;33.60;94.90
42261;DHT22;27926;48.062;7.474;2023-08-21T14:57:36;33.60;94.50
42261;DHT22;27926;48.062;7.474;2023-08-21T15:00:02;33.50;94.20
42261;DHT22;27926;48.062;7.474;2023-08-21T15:02:30;33.50;95.10
42261;DHT22;27926;48.062;7.474;2023-08-21T15:04:55;33.50;95.20
42261;DHT22;27926;48.062;7.474;2023-08-21T15:07:19;33.50;94.70
42261;DHT22;27926;48.062;7.474;2023-08-21T15:09:44;33.50;94.80
42261;DHT22;27926;48.062;7.474;2023-08-21T15:12:09;33.50;94.50
42261;DHT22;27926;48.062;7.474;2023-08-21T15:14:33;33.40;94.20
42261;DHT22;27926;48.062;7.474;2023-08-21T15:16:58;33.40;94.60
42261;DHT22;27926;48.062;7.474;2023-08-21T15:19:22;33.30;94.10
42261;DHT22;27926;48.062;7.474;2023-08-21T15:21:47;33.40;94.10
42261;DHT22;27926;48.062;7.474;2023-08-21T15:24:12;33.40;94.00
42261;DHT22;27926;48.062;7.474;2023-08-21T15:26:36;33.40;94.00